Latest Weather Observations for Port Hedland

IDW60801

Issued at 12:53 pm WST Friday 23 August 2019 (issued every 10 minutes, with the page automatically refreshed every 10 minutes)

About weather observations | Map of weather stations | Latest weather observations for WA | Other Formats
Station Details ID: 004032 Name: PORT HEDLAND AIRPORT Lat: -20.37 Lon: 118.63 Height: 6.4 m
Data from the previous 72 hours. | See also: Recent months at Port Hedland
Date/Time
WST
Temp
°C
App
Temp
°C
Dew
Point
°C
Rel
Hum
%
Delta-T
°C
Wind Press
QNH
hPa
Press
MSL
hPa
Rain since
9am
mm
Dir  Spd
km/h
Gust
km/h
Spd
kts
Gust
kts
23/12:30pm 27.7 20.7 -3.2 13 13.7 NNE 24 28 13 15 1017.8 1017.8 0.0
23/12:00pm 28.3 22.6 -3.8 12 14.1 NNE 17 20 9 11 1018.1 1018.1 0.0
23/11:30am 28.6 22.7 -2.5 13 14.1 NNE 19 24 10 13 1018.5 1018.5 0.0
23/11:00am 28.4 21.5 -6.1 10 14.6 ENE 22 28 12 15 1018.8 1018.8 0.0
23/10:30am 28.3 21.6 -7.6 9 14.8 ENE 20 28 11 15 1019.0 1019.0 0.0
23/10:00am 27.1 20.6 -8.5 9 14.2 NE 19 22 10 12 1019.4 1019.4 0.0
23/09:30am 26.2 20.5 -7.8 10 13.7 E 15 20 8 11 1019.7 1019.7 0.0
23/09:00am 24.9 18.7 -8.8 10 13.1 ESE 17 20 9 11 1019.7 1019.7 0.0
23/08:30am 23.6 17.2 -6.4 13 12.1 ESE 19 26 10 14 1019.8 1019.8 0.0
23/08:00am 21.4 16.6 -2.5 20 10.1 SE 13 19 7 10 1019.7 1019.7 0.0
23/07:30am 17.6 13.0 -1.1 28 7.9 SSE 13 17 7 9 1019.3 1019.3 0.0
23/07:00am 14.4 9.3 -1.6 33 6.5 SSE 15 20 8 11 1018.8 1018.8 0.0
23/06:30am 12.7 7.7 -0.9 39 5.5 SSE 15 19 8 10 1018.7 1018.7 0.0
23/06:00am 12.7 8.2 -0.5 40 5.4 SSE 13 17 7 9 1018.4 1018.4 0.0
23/05:30am 12.9 8.1 0.3 42 5.2 S 15 17 8 9 1018.2 1018.2 0.0
23/05:00am 12.7 8.0 1.1 45 4.9 S 15 17 8 9 1018.0 1018.0 0.0
23/04:30am 12.5 8.3 1.8 48 4.6 S 13 17 7 9 1018.1 1018.1 0.0
23/04:00am 12.4 8.3 2.0 49 4.5 S 13 17 7 9 1017.9 1017.9 0.0
23/03:30am 12.5 8.0 2.4 50 4.4 S 15 17 8 9 1017.8 1017.8 0.0
23/03:00am 13.1 8.8 3.2 51 4.4 S 15 17 8 9 1017.8 1017.8 0.0
23/02:30am 12.7 8.8 3.6 54 4.1 S 13 17 7 9 1017.8 1017.8 0.0
23/02:00am 13.0 9.3 4.2 55 4.0 S 13 17 7 9 1018.0 1018.0 0.0
23/01:30am 13.1 9.8 4.5 56 3.9 S 11 13 6 7 1018.3 1018.3 0.0
23/01:00am 13.1 9.9 5.0 58 3.7 S 11 13 6 7 1018.5 1018.5 0.0
23/12:30am 13.3 10.1 5.2 58 3.8 S 11 15 6 8 1018.6 1018.6 0.0
23/12:00am 12.9 9.9 5.8 62 3.3 S 11 13 6 7 1018.7 1018.7 0.0
 
Date/Time
WST
Temp
°C
App
Temp
°C
Dew
Point
°C
Rel
Hum
%
Delta-T
°C
Wind Press
QNH
hPa
Press
MSL
hPa
Rain since
9am
mm
Dir  Spd
km/h
Gust
km/h
Spd
kts
Gust
kts
22/11:30pm 13.8 11.0 6.9 63 3.3 S 11 13 6 7 1018.8 1018.8 0.0
22/11:00pm 13.6 10.7 6.7 63 3.3 S 11 13 6 7 1019.0 1019.0 0.0
22/10:30pm 14.7 12.5 8.0 64 3.3 S 9 11 5 6 1019.1 1019.1 0.0
22/10:00pm 14.8 13.0 8.1 64 3.3 S 7 7 4 4 1019.3 1019.3 0.0
22/09:30pm 15.1 13.7 7.2 59 3.9 SW 4 9 2 5 1019.5 1019.5 0.0
22/09:00pm 16.1 15.6 7.8 58 4.2 CALM 0 0 0 0 1019.5 1019.5 0.0
22/08:30pm 17.3 15.8 9.2 59 4.2 WSW 7 7 4 4 1019.5 1019.5 0.0
22/08:00pm 17.7 16.2 9.3 58 4.4 SW 7 9 4 5 1019.3 1019.3 0.0
22/07:30pm 18.3 17.1 10.2 59 4.3 WNW 7 9 4 5 1019.0 1019.0 0.0
22/07:00pm 19.1 17.2 9.0 52 5.3 NW 9 11 5 6 1018.9 1018.9 0.0
22/06:30pm 18.9 16.9 8.6 51 5.3 NNW 9 11 5 6 1018.7 1018.7 0.0
22/06:00pm 20.7 17.8 8.0 44 6.6 N 13 15 7 8 1018.4 1018.4 0.0
22/05:30pm 23.4 19.2 5.8 32 8.9 N 17 22 9 12 1018.3 1018.3 0.0
22/05:00pm 24.8 19.5 2.9 24 10.6 N 20 26 11 14 1018.0 1018.0 0.0
22/04:30pm 25.2 19.7 2.0 22 11.1 N 20 26 11 14 1017.7 1017.7 0.0
22/04:00pm 26.1 20.5 1.4 20 11.7 N 20 26 11 14 1017.7 1017.7 0.0
22/03:30pm 26.3 20.3 0.9 19 12.0 N 22 28 12 15 1017.6 1017.6 0.0
22/03:00pm 27.1 20.0 -0.9 16 12.8 N 26 30 14 16 1017.7 1017.7 0.0
22/02:30pm 26.8 19.5 -2.9 14 13.1 N 26 30 14 16 1017.9 1017.9 0.0
22/02:00pm 27.2 19.9 -5.8 11 13.9 N 24 30 13 16 1017.9 1017.9 0.0
22/01:30pm 27.8 20.3 -4.2 12 13.9 NNE 26 32 14 17 1018.3 1018.3 0.0
22/01:00pm 28.4 21.1 -6.1 10 14.6 NNE 24 32 13 17 1018.5 1018.5 0.0
22/12:30pm 28.0 21.1 -6.4 10 14.4 NE 22 32 12 17 1019.0 1019.0 0.0
22/12:00pm 27.8 21.2 -6.6 10 14.3 ENE 20 33 11 18 1019.6 1019.6 0.0
22/11:30am 28.3 20.8 -9.1 8 15.0 ENE 24 33 13 18 1020.2 1020.2 0.0
22/11:00am 27.6 19.1 -11.3 7 14.8 E 28 37 15 20 1020.6 1020.6 0.0
22/10:30am 26.8 18.0 -10.2 8 14.3 E 30 43 16 23 1021.0 1021.0 0.0
22/10:00am 26.0 17.2 -10.8 8 13.9 ESE 30 41 16 22 1021.4 1021.4 0.0
22/09:30am 24.9 16.5 -10.1 9 13.3 ESE 28 35 15 19 1021.5 1021.5 0.0
22/09:00am 23.6 15.6 -9.8 10 12.5 ESE 26 37 14 20 1021.6 1021.6 0.0
22/08:30am 22.2 14.3 -8.5 12 11.7 ESE 26 37 14 20 1021.5 1021.5 0.0
22/08:00am 20.6 14.0 -6.9 15 10.6 SE 20 28 11 15 1021.5 1021.5 0.0
22/07:59am 20.5 13.9 -7.0 15 10.6 SE 20 28 11 15 1021.5 1021.5 0.0
22/07:30am 15.5 10.5 -3.9 26 7.6 SE 13 20 7 11 1021.3 1021.3 0.0
22/07:00am 11.0 5.3 -3.8 35 5.5 SSE 17 19 9 10 1021.1 1021.1 0.0
22/06:30am 9.8 4.4 -4.2 37 5.1 SSE 15 19 8 10 1020.9 1020.9 0.0
22/06:00am 10.1 4.3 -4.3 36 5.2 SSE 17 17 9 9 1020.5 1020.5 0.0
22/05:30am 10.8 5.0 -4.8 33 5.6 SSE 17 19 9 10 1020.1 1020.1 0.0
22/05:00am 11.0 5.2 -4.6 33 5.7 SSE 17 20 9 11 1019.9 1019.9 0.0
22/04:30am 11.9 6.1 -5.1 30 6.2 SSE 17 20 9 11 1019.6 1019.6 0.0
22/04:00am 13.6 7.7 -5.5 26 7.0 SSE 17 19 9 10 1019.5 1019.5 0.0
22/03:30am 14.9 9.4 -5.5 24 7.6 SE 15 19 8 10 1019.3 1019.3 0.0
22/03:00am 14.4 8.9 -5.3 25 7.3 SE 15 19 8 10 1019.5 1019.5 0.0
22/02:30am 13.7 8.6 -5.4 26 7.1 SE 13 17 7 9 1019.5 1019.5 0.0
22/02:00am 15.7 10.1 -5.9 22 8.1 SE 15 17 8 9 1019.5 1019.5 0.0
22/01:30am 16.2 10.6 -6.1 21 8.4 SE 15 19 8 10 1019.7 1019.7 0.0
22/01:00am 16.3 10.4 -6.0 21 8.3 SE 17 19 9 10 1019.7 1019.7 0.0
22/12:30am 15.5 10.4 -5.5 23 7.9 SE 13 17 7 9 1019.9 1019.9 0.0
22/12:00am 17.4 11.4 -6.4 19 8.9 SE 17 20 9 11 1019.8 1019.8 0.0
 
Date/Time
WST
Temp
°C
App
Temp
°C
Dew
Point
°C
Rel
Hum
%
Delta-T
°C
Wind Press
QNH
hPa
Press
MSL
hPa
Rain since
9am
mm
Dir  Spd
km/h
Gust
km/h
Spd
kts
Gust
kts
21/11:30pm 17.8 11.9 -6.1 19 9.1 SE 17 22 9 12 1019.8 1019.8 0.0
21/11:00pm 18.0 11.7 -5.9 19 9.1 SE 19 24 10 13 1019.8 1019.8 0.0
21/10:30pm 17.7 11.9 -4.3 22 8.7 SE 17 20 9 11 1019.8 1019.8 0.0
21/10:00pm 18.0 12.6 -1.3 27 8.1 SE 17 20 9 11 1019.9 1019.9 0.0
21/09:30pm 15.8 13.8 8.5 62 3.7 SSE 9 9 5 5 1019.8 1019.8 0.0
21/09:00pm 16.3 14.8 9.3 63 3.6 ESE 7 7 4 4 1019.7 1019.7 0.0
21/08:30pm 17.2 16.9 10.1 63 3.8 SE 2 7 1 4 1019.6 1019.6 0.0
21/08:00pm 17.3 17.2 9.5 60 4.1 CALM 0 0 0 0 1019.3 1019.3 0.0
21/07:30pm 18.6 18.8 10.4 59 4.4 CALM 0 0 0 0 1018.9 1018.9 0.0
21/07:00pm 19.1 19.3 10.4 57 4.7 CALM 0 0 0 0 1018.5 1018.5 0.0
21/06:30pm 19.9 18.7 9.5 51 5.5 N 6 7 3 4 1018.1 1018.1 0.0
21/06:00pm 21.8 18.7 9.0 44 6.8 NNE 15 19 8 10 1017.7 1017.7 0.0
21/05:30pm 22.9 19.0 7.1 36 8.2 N 17 20 9 11 1017.3 1017.3 0.0
21/05:00pm 23.6 20.0 6.8 34 8.7 N 15 20 8 11 1017.2 1017.2 0.0
21/04:30pm 24.0 19.8 7.6 35 8.6 N 19 22 10 12 1017.2 1017.2 0.0
21/04:00pm 25.0 20.6 7.6 33 9.2 N 20 26 11 14 1017.2 1017.2 0.0
21/03:30pm 25.9 21.6 8.0 32 9.6 N 20 26 11 14 1017.3 1017.3 0.0
21/03:00pm 26.7 22.6 6.2 27 10.7 NNE 17 24 9 13 1017.4 1017.4 0.0
21/02:30pm 29.9 22.8 -7.9 8 15.7 E 22 33 12 18 1017.6 1017.6 0.0
21/02:00pm 30.2 23.3 -6.1 9 15.6 E 22 39 12 21 1017.8 1017.8 0.0
21/01:30pm 29.9 22.6 -6.4 9 15.5 E 24 33 13 18 1018.4 1018.4 0.0
21/01:00pm 29.2 21.0 -8.4 8 15.4 ESE 28 39 15 21 1018.8 1018.8 0.0
21/12:30pm 28.4 20.2 -7.5 9 14.8 E 28 39 15 21 1019.2 1019.2 0.0
21/12:00pm 29.1 20.6 -7.0 9 15.1 E 30 39 16 21 1019.6 1019.6 0.0
21/11:30am 28.1 18.6 -7.7 9 14.7 E 35 54 19 29 1020.2 1020.2 0.0
21/11:17am 27.6 18.0 -8.1 9 14.5 E 35 54 19 29 1020.5 1020.5 0.0
21/11:00am 27.6 18.4 -8.1 9 14.4 E 33 48 18 26 1020.8 1020.8 0.0
21/10:30am 26.7 15.7 -7.4 10 13.9 E 43 63 23 34 1021.2 1021.2 0.0
21/10:04am 25.9 16.1 -6.8 11 13.4 E 37 56 20 30 1021.4 1021.4 0.0
21/10:00am 25.5 14.9 -7.1 11 13.1 E 41 56 22 30 1021.5 1021.5 0.0
21/09:30am 24.4 13.9 -5.8 13 12.4 ESE 41 54 22 29 1021.6 1021.6 0.0
21/09:00am 23.1 13.8 -5.8 14 11.7 ESE 35 46 19 25 1021.9 1021.9 0.0
21/08:30am 21.8 11.8 -5.1 16 10.9 ESE 39 48 21 26 1021.9 1021.9 0.0
21/08:00am 20.6 11.6 -6.1 16 10.4 ESE 33 50 18 27 1021.7 1021.7 0.0
21/07:30am 19.3 11.7 -5.6 18 9.7 ESE 26 37 14 20 1021.7 1021.7 0.0
21/07:00am 18.3 11.0 -6.4 18 9.4 ESE 24 32 13 17 1021.5 1021.5 0.0
21/06:30am 17.6 10.3 -6.3 19 9.1 SE 24 32 13 17 1021.3 1021.3 0.0
21/06:00am 17.5 11.0 -6.3 19 9.0 ESE 20 28 11 15 1021.3 1021.3 0.0
21/05:30am 17.8 11.2 -6.8 18 9.2 SE 20 28 11 15 1021.0 1021.0 0.0
21/05:00am 18.4 11.4 -7.1 17 9.5 ESE 22 32 12 17 1021.0 1021.0 0.0
21/04:30am 18.5 11.9 -7.0 17 9.6 ESE 20 26 11 14 1020.8 1020.8 0.0
21/04:00am 18.9 12.3 -7.4 16 9.8 ESE 20 30 11 16 1020.7 1020.7 0.0
21/03:30am 19.0 12.4 -7.4 16 9.9 ESE 20 28 11 15 1020.6 1020.6 0.0
21/03:00am 19.0 12.5 -7.4 16 9.9 ESE 19 26 10 14 1020.7 1020.7 0.0
21/02:30am 19.2 12.7 -8.0 15 10.1 ESE 19 24 10 13 1020.8 1020.8 0.0
21/02:00am 19.6 13.5 -7.7 15 10.2 ESE 17 24 9 13 1020.8 1020.8 0.0
21/01:30am 19.3 13.9 -7.9 15 10.2 ESE 13 19 7 10 1020.8 1020.8 0.0
21/01:00am 20.3 13.8 -8.0 14 10.6 ESE 19 26 10 14 1020.7 1020.7 0.0
21/12:30am 20.6 14.1 -7.8 14 10.8 SE 19 22 10 12 1020.8 1020.8 0.0
21/12:00am 21.0 14.3 -7.5 14 10.9 SE 20 26 11 14 1020.9 1020.9 0.0
 
Date/Time
WST
Temp
°C
App
Temp
°C
Dew
Point
°C
Rel
Hum
%
Delta-T
°C
Wind Press
QNH
hPa
Press
MSL
hPa
Rain since
9am
mm
Dir  Spd
km/h
Gust
km/h
Spd
kts
Gust
kts
20/11:30pm 21.5 14.0 -8.0 13 11.3 ESE 24 32 13 17 1021.0 1021.0 0.0
20/11:00pm 21.7 14.3 -6.9 14 11.1 ESE 24 32 13 17 1021.0 1021.0 0.0
20/10:30pm 22.0 14.7 -5.8 15 11.1 ESE 24 33 13 18 1021.2 1021.2 0.0
20/10:00pm 21.9 15.8 -4.2 17 10.7 ESE 19 26 10 14 1021.3 1021.3 0.0
20/09:30pm 21.4 15.7 -3.9 18 10.5 SE 17 20 9 11 1021.3 1021.3 0.0
20/09:00pm 21.2 15.6 -3.3 19 10.2 SE 17 20 9 11 1021.2 1021.2 0.0
20/08:30pm 21.1 15.8 -3.4 19 10.2 SE 15 19 8 10 1021.1 1021.1 0.0
20/08:00pm 22.2 16.6 -3.2 18 10.7 SE 17 20 9 11 1020.8 1020.8 0.0
20/07:30pm 23.1 17.5 -3.3 17 11.2 ESE 17 22 9 12 1020.5 1020.5 0.0
20/07:00pm 23.5 18.3 -2.9 17 11.3 ESE 15 19 8 10 1020.2 1020.2 0.0
20/06:30pm 24.6 18.9 -3.7 15 12.1 ESE 17 24 9 13 1019.8 1019.8 0.0
20/06:00pm 25.6 19.3 -3.8 14 12.6 ESE 20 33 11 18 1019.3 1019.3 0.0
20/05:30pm 27.0 19.6 -3.7 13 13.4 ESE 26 37 14 20 1019.1 1019.1 0.0
20/05:00pm 27.8 19.0 -4.2 12 13.9 ESE 33 41 18 22 1019.0 1019.0 0.0
20/04:30pm 28.5 19.8 -4.8 11 14.4 ESE 32 41 17 22 1018.7 1018.7 0.0
20/04:00pm 28.7 20.1 -4.6 11 14.5 ESE 32 39 17 21 1018.8 1018.8 0.0
20/03:30pm 28.7 19.9 -4.6 11 14.5 ESE 33 46 18 25 1018.9 1018.9 0.0
20/03:00pm 28.6 19.9 -4.7 11 14.4 ESE 32 44 17 24 1019.1 1019.1 0.0
20/02:30pm 28.7 19.9 -4.6 11 14.5 ESE 33 46 18 25 1019.5 1019.5 0.0
20/02:00pm 28.7 19.5 -4.6 11 14.5 E 35 50 19 27 1019.9 1019.9 0.0
20/01:30pm 28.0 19.4 -4.0 12 14.0 ESE 32 43 17 23 1020.4 1020.4 0.0
20/01:00pm 27.6 18.4 -4.3 12 13.8 ESE 35 48 19 26 1020.9 1020.9 0.0

Other formats

Comma delimited format used in spreadsheet applications
http://www.bom.gov.au/fwo/IDW60801/IDW60801.94312.axf

JavaScript Object Notation format (JSON) in row-major order
http://www.bom.gov.au/fwo/IDW60801/IDW60801.94312.json

Data quality

Most of these data are generated automatically and are frequently updated. Quality checks on data are not normally performed. It is possible for incorrect values to appear. Refer to information at About Latest Weather Observations and please check the disclaimer before using these data.